sensor_id;sensor_type;location;lat;lon;timestamp;pressure;altitude;pressure_sealevel;temperature;humidity
83027;BME280;72842;56.038;12.706;2023-11-19T00:01:01;101480.06;;;5.82;64.92
83027;BME280;72842;56.038;12.706;2023-11-19T00:03:26;101478.28;;;5.83;65.14
83027;BME280;72842;56.038;12.706;2023-11-19T00:05:51;101466.88;;;5.81;65.10
83027;BME280;72842;56.038;12.706;2023-11-19T00:08:17;101465.84;;;5.83;65.27
83027;BME280;72842;56.038;12.706;2023-11-19T00:10:42;101469.31;;;5.85;65.38
83027;BME280;72842;56.038;12.706;2023-11-19T00:13:08;101460.41;;;5.86;64.77
83027;BME280;72842;56.038;12.706;2023-11-19T00:15:35;101449.78;;;5.86;65.39
83027;BME280;72842;56.038;12.706;2023-11-19T00:18:00;101450.75;;;5.85;64.91
83027;BME280;72842;56.038;12.706;2023-11-19T00:20:30;101440.88;;;5.87;65.14
83027;BME280;72842;56.038;12.706;2023-11-19T00:22:55;101439.19;;;5.86;65.13
83027;BME280;72842;56.038;12.706;2023-11-19T00:25:21;101433.88;;;5.86;64.93
83027;BME280;72842;56.038;12.706;2023-11-19T00:27:50;101431.13;;;5.88;65.12
83027;BME280;72842;56.038;12.706;2023-11-19T00:30:16;101419.63;;;5.87;65.19
83027;BME280;72842;56.038;12.706;2023-11-19T00:32:42;101416.03;;;5.88;65.21
83027;BME280;72842;56.038;12.706;2023-11-19T00:35:08;101415.19;;;5.88;65.29
83027;BME280;72842;56.038;12.706;2023-11-19T00:37:35;101409.03;;;5.87;65.11
83027;BME280;72842;56.038;12.706;2023-11-19T00:40:01;101413.28;;;5.91;64.86
83027;BME280;72842;56.038;12.706;2023-11-19T00:42:26;101400.03;;;5.90;64.77
83027;BME280;72842;56.038;12.706;2023-11-19T00:44:52;101384.09;;;5.90;64.62
83027;BME280;72842;56.038;12.706;2023-11-19T00:47:18;101370.91;;;5.88;64.91
83027;BME280;72842;56.038;12.706;2023-11-19T00:49:47;101365.56;;;5.88;65.28
83027;BME280;72842;56.038;12.706;2023-11-19T00:52:14;101362.94;;;5.88;64.70
83027;BME280;72842;56.038;12.706;2023-11-19T00:54:40;101347.84;;;5.89;64.98
83027;BME280;72842;56.038;12.706;2023-11-19T00:57:05;101346.91;;;5.90;64.81
83027;BME280;72842;56.038;12.706;2023-11-19T00:59:31;101336.25;;;5.91;64.68
83027;BME280;72842;56.038;12.706;2023-11-19T01:01:57;101299.09;;;5.73;65.01
83027;BME280;72842;56.038;12.706;2023-11-19T01:04:24;101325.63;;;5.91;64.51
83027;BME280;72842;56.038;12.706;2023-11-19T01:06:49;101330.09;;;5.91;64.59
83027;BME280;72842;56.038;12.706;2023-11-19T01:09:15;101322.13;;;5.91;64.92
83027;BME280;72842;56.038;12.706;2023-11-19T01:11:41;101319.47;;;5.91;65.01
83027;BME280;72842;56.038;12.706;2023-11-19T01:14:06;101314.19;;;5.89;64.65
83027;BME280;72842;56.038;12.706;2023-11-19T01:16:31;101296.44;;;5.90;64.85
83027;BME280;72842;56.038;12.706;2023-11-19T01:18:57;101281.38;;;5.90;64.61
83027;BME280;72842;56.038;12.706;2023-11-19T01:21:22;101268.09;;;5.90;64.78
83027;BME280;72842;56.038;12.706;2023-11-19T01:23:48;101270.72;;;5.92;64.47
83027;BME280;72842;56.038;12.706;2023-11-19T01:26:13;101262.75;;;5.92;64.42
83027;BME280;72842;56.038;12.706;2023-11-19T01:28:40;101259.25;;;5.91;64.51
83027;BME280;72842;56.038;12.706;2023-11-19T01:31:11;101256.56;;;5.91;64.11
83027;BME280;72842;56.038;12.706;2023-11-19T01:33:38;101247.75;;;5.91;64.67
83027;BME280;72842;56.038;12.706;2023-11-19T01:36:04;101243.31;;;5.91;64.67
83027;BME280;72842;56.038;12.706;2023-11-19T01:38:29;101240.66;;;5.91;64.83
83027;BME280;72842;56.038;12.706;2023-11-19T01:40:59;101242.34;;;5.92;64.17
83027;BME280;72842;56.038;12.706;2023-11-19T01:43:31;101233.53;;;5.92;64.09
83027;BME280;72842;56.038;12.706;2023-11-19T01:45:58;101222.91;;;5.92;64.83
83027;BME280;72842;56.038;12.706;2023-11-19T01:48:23;101214.94;;;5.92;64.39
83027;BME280;72842;56.038;12.706;2023-11-19T01:50:49;101205.16;;;5.92;64.23
83027;BME280;72842;56.038;12.706;2023-11-19T01:53:17;101171.47;;;5.76;64.65
83027;BME280;72842;56.038;12.706;2023-11-19T01:55:43;101193.59;;;5.93;64.41
83027;BME280;72842;56.038;12.706;2023-11-19T01:58:09;101191.81;;;5.94;64.33
83027;BME280;72842;56.038;12.706;2023-11-19T02:00:34;101182.03;;;5.94;64.07
83027;BME280;72842;56.038;12.706;2023-11-19T02:03:00;101188.28;;;5.93;64.34
83027;BME280;72842;56.038;12.706;2023-11-19T02:05:26;101182.03;;;5.94;64.11
83027;BME280;72842;56.038;12.706;2023-11-19T02:07:52;101175.78;;;5.95;64.56
83027;BME280;72842;56.038;12.706;2023-11-19T02:10:17;101165.97;;;5.98;64.53
83027;BME280;72842;56.038;12.706;2023-11-19T02:12:44;101162.34;;;5.99;64.57
83027;BME280;72842;56.038;12.706;2023-11-19T02:15:11;101124.13;;;5.84;64.13
83027;BME280;72842;56.038;12.706;2023-11-19T02:17:37;101142.81;;;6.00;64.33
83027;BME280;72842;56.038;12.706;2023-11-19T02:20:05;101138.34;;;6.00;64.51
83027;BME280;72842;56.038;12.706;2023-11-19T02:22:36;101134.84;;;6.00;64.68
83027;BME280;72842;56.038;12.706;2023-11-19T02:25:06;101132.19;;;6.00;64.98
83027;BME280;72842;56.038;12.706;2023-11-19T02:27:54;101134.94;;;5.98;65.38
83027;BME280;72842;56.038;12.706;2023-11-19T02:30:21;101126.97;;;5.98;64.60
83027;BME280;72842;56.038;12.706;2023-11-19T02:32:55;101122.50;;;5.99;65.14
83027;BME280;72842;56.038;12.706;2023-11-19T02:35:23;101130.47;;;5.99;65.10
83027;BME280;72842;56.038;12.706;2023-11-19T02:37:49;101134.75;;;6.01;64.90
83027;BME280;72842;56.038;12.706;2023-11-19T02:40:14;101116.16;;;6.01;64.76
83027;BME280;72842;56.038;12.706;2023-11-19T02:42:40;101114.44;;;6.00;64.77
83027;BME280;72842;56.038;12.706;2023-11-19T02:45:06;101110.00;;;6.01;65.06
83027;BME280;72842;56.038;12.706;2023-11-19T02:47:33;101102.03;;;6.01;65.45
83027;BME280;72842;56.038;12.706;2023-11-19T02:49:59;101096.81;;;5.99;65.75
83027;BME280;72842;56.038;12.706;2023-11-19T02:52:25;101087.97;;;5.99;65.63
83027;BME280;72842;56.038;12.706;2023-11-19T02:54:50;101082.66;;;5.99;65.76
83027;BME280;72842;56.038;12.706;2023-11-19T02:57:16;101062.38;;;5.98;65.92
83027;BME280;72842;56.038;12.706;2023-11-19T02:59:44;101060.56;;;5.98;66.18
83027;BME280;72842;56.038;12.706;2023-11-19T03:02:10;101048.19;;;5.97;65.62
83027;BME280;72842;56.038;12.706;2023-11-19T03:04:38;101045.63;;;5.95;66.59
83027;BME280;72842;56.038;12.706;2023-11-19T03:07:05;101052.66;;;5.97;66.42
83027;BME280;72842;56.038;12.706;2023-11-19T03:09:30;101041.16;;;5.96;66.31
83027;BME280;72842;56.038;12.706;2023-11-19T03:11:56;101029.59;;;5.97;66.67
83027;BME280;72842;56.038;12.706;2023-11-19T03:14:21;101027.81;;;5.98;66.71
83027;BME280;72842;56.038;12.706;2023-11-19T03:16:48;101021.47;;;6.00;66.52
83027;BME280;72842;56.038;12.706;2023-11-19T03:19:13;101017.03;;;6.01;66.64
83027;BME280;72842;56.038;12.706;2023-11-19T03:21:39;101001.19;;;5.99;67.22
83027;BME280;72842;56.038;12.706;2023-11-19T03:24:05;101000.13;;;6.02;66.97
83027;BME280;72842;56.038;12.706;2023-11-19T03:26:30;100993.97;;;6.01;66.85
83027;BME280;72842;56.038;12.706;2023-11-19T03:28:56;100992.16;;;6.02;66.78
83027;BME280;72842;56.038;12.706;2023-11-19T03:31:22;100985.91;;;6.03;67.31
83027;BME280;72842;56.038;12.706;2023-11-19T03:33:48;100972.63;;;6.03;67.75
83027;BME280;72842;56.038;12.706;2023-11-19T03:36:13;100975.28;;;6.03;67.94
83027;BME280;72842;56.038;12.706;2023-11-19T03:38:39;100961.16;;;6.02;67.65
83027;BME280;72842;56.038;12.706;2023-11-19T03:41:11;100945.38;;;5.99;67.67
83027;BME280;72842;56.038;12.706;2023-11-19T03:43:37;100943.41;;;6.03;67.74
83027;BME280;72842;56.038;12.706;2023-11-19T03:46:03;100928.50;;;6.00;67.96
83027;BME280;72842;56.038;12.706;2023-11-19T03:48:30;100928.25;;;6.05;68.14
83027;BME280;72842;56.038;12.706;2023-11-19T03:50:56;100923.19;;;6.00;67.93
83027;BME280;72842;56.038;12.706;2023-11-19T03:53:21;100917.69;;;6.03;67.83
83027;BME280;72842;56.038;12.706;2023-11-19T03:55:48;100916.78;;;6.04;67.88
83027;BME280;72842;56.038;12.706;2023-11-19T03:58:15;100910.53;;;6.05;67.85
83027;BME280;72842;56.038;12.706;2023-11-19T04:00:40;100902.66;;;6.04;68.39
83027;BME280;72842;56.038;12.706;2023-11-19T04:03:06;100899.03;;;6.05;67.94
83027;BME280;72842;56.038;12.706;2023-11-19T04:05:31;100901.69;;;6.05;67.66
83027;BME280;72842;56.038;12.706;2023-11-19T04:07:57;100888.47;;;6.03;68.37
83027;BME280;72842;56.038;12.706;2023-11-19T04:10:22;100889.25;;;6.05;67.85
83027;BME280;72842;56.038;12.706;2023-11-19T04:12:47;100888.47;;;6.03;68.23
83027;BME280;72842;56.038;12.706;2023-11-19T04:15:14;100878.72;;;6.04;68.24
83027;BME280;72842;56.038;12.706;2023-11-19T04:17:40;100880.44;;;6.05;68.49
83027;BME280;72842;56.038;12.706;2023-11-19T04:20:06;100869.81;;;6.05;68.40
83027;BME280;72842;56.038;12.706;2023-11-19T04:22:36;100866.22;;;6.06;68.90
83027;BME280;72842;56.038;12.706;2023-11-19T04:25:01;100857.38;;;6.05;68.48
83027;BME280;72842;56.038;12.706;2023-11-19T04:27:27;100861.91;;;6.03;68.97
83027;BME280;72842;56.038;12.706;2023-11-19T04:29:52;100855.75;;;6.03;68.79
83027;BME280;72842;56.038;12.706;2023-11-19T04:32:18;100851.13;;;6.06;68.92
83027;BME280;72842;56.038;12.706;2023-11-19T04:34:44;100840.59;;;6.05;68.70
83027;BME280;72842;56.038;12.706;2023-11-19T04:37:09;100840.50;;;6.06;69.03
83027;BME280;72842;56.038;12.706;2023-11-19T04:39:35;100842.31;;;6.06;69.51
83027;BME280;72842;56.038;12.706;2023-11-19T04:42:01;100829.38;;;6.00;69.57
83027;BME280;72842;56.038;12.706;2023-11-19T04:44:26;100835.19;;;6.06;69.20
83027;BME280;72842;56.038;12.706;2023-11-19T04:46:52;100826.28;;;6.07;69.66
83027;BME280;72842;56.038;12.706;2023-11-19T04:49:17;100821.81;;;6.08;68.96
83027;BME280;72842;56.038;12.706;2023-11-19T04:51:45;100817.28;;;6.10;69.27
83027;BME280;72842;56.038;12.706;2023-11-19T04:54:13;100814.63;;;6.10;69.76
83027;BME280;72842;56.038;12.706;2023-11-19T04:56:39;100809.22;;;6.11;69.72
83027;BME280;72842;56.038;12.706;2023-11-19T04:59:05;100809.13;;;6.13;69.90
83027;BME280;72842;56.038;12.706;2023-11-19T05:01:34;100801.16;;;6.13;70.15
83027;BME280;72842;56.038;12.706;2023-11-19T05:04:00;100803.81;;;6.13;70.11
83027;BME280;72842;56.038;12.706;2023-11-19T05:06:27;100792.13;;;6.15;69.62
83027;BME280;72842;56.038;12.706;2023-11-19T05:08:55;100787.66;;;6.16;69.88
83027;BME280;72842;56.038;12.706;2023-11-19T05:11:20;100778.84;;;6.15;70.02
83027;BME280;72842;56.038;12.706;2023-11-19T05:13:46;100771.81;;;6.14;70.67
83027;BME280;72842;56.038;12.706;2023-11-19T05:16:11;100770.88;;;6.15;70.55
83027;BME280;72842;56.038;12.706;2023-11-19T05:18:40;100772.69;;;6.15;70.86
83027;BME280;72842;56.038;12.706;2023-11-19T05:21:05;100765.56;;;6.15;70.19
83027;BME280;72842;56.038;12.706;2023-11-19T05:23:32;100761.09;;;6.16;70.29
83027;BME280;72842;56.038;12.706;2023-11-19T05:25:59;100754.09;;;6.15;70.92
83027;BME280;72842;56.038;12.706;2023-11-19T05:28:25;100747.81;;;6.16;70.65
83027;BME280;72842;56.038;12.706;2023-11-19T05:30:51;100746.91;;;6.17;70.32
83027;BME280;72842;56.038;12.706;2023-11-19T05:33:17;100733.50;;;6.18;70.68
83027;BME280;72842;56.038;12.706;2023-11-19T05:35:42;100737.13;;;6.17;70.46
83027;BME280;72842;56.038;12.706;2023-11-19T05:38:07;100737.97;;;6.18;71.11
83027;BME280;72842;56.038;12.706;2023-11-19T05:40:34;100727.44;;;6.16;70.83
83027;BME280;72842;56.038;12.706;2023-11-19T05:43:00;100720.97;;;6.20;71.08
83027;BME280;72842;56.038;12.706;2023-11-19T05:45:25;100732.47;;;6.21;70.94
83027;BME280;72842;56.038;12.706;2023-11-19T05:47:51;100727.16;;;6.21;70.64
83027;BME280;72842;56.038;12.706;2023-11-19T05:50:17;100712.25;;;6.18;71.23
83027;BME280;72842;56.038;12.706;2023-11-19T05:52:43;100719.97;;;6.23;71.04
83027;BME280;72842;56.038;12.706;2023-11-19T05:55:09;100717.22;;;6.25;71.43
83027;BME280;72842;56.038;12.706;2023-11-19T05:57:38;100711.03;;;6.24;71.37
83027;BME280;72842;56.038;12.706;2023-11-19T06:00:06;100707.44;;;6.25;71.61
83027;BME280;72842;56.038;12.706;2023-11-19T06:02:34;100707.44;;;6.25;71.10
83027;BME280;72842;56.038;12.706;2023-11-19T06:05:00;100702.00;;;6.27;71.70
83027;BME280;72842;56.038;12.706;2023-11-19T06:07:27;100705.53;;;6.27;71.67
83027;BME280;72842;56.038;12.706;2023-11-19T06:09:52;100693.88;;;6.30;70.90
83027;BME280;72842;56.038;12.706;2023-11-19T06:12:18;100700.88;;;6.31;70.94
83027;BME280;72842;56.038;12.706;2023-11-19T06:14:43;100695.56;;;6.31;70.84
83027;BME280;72842;56.038;12.706;2023-11-19T06:17:09;100695.47;;;6.32;71.62
83027;BME280;72842;56.038;12.706;2023-11-19T06:19:36;100683.91;;;6.33;71.59
83027;BME280;72842;56.038;12.706;2023-11-19T06:22:03;100678.78;;;6.30;71.01
83027;BME280;72842;56.038;12.706;2023-11-19T06:24:29;100668.91;;;6.32;71.21
83027;BME280;72842;56.038;12.706;2023-11-19T06:26:54;100671.56;;;6.32;71.26
83027;BME280;72842;56.038;12.706;2023-11-19T06:29:19;100671.56;;;6.32;72.03
83027;BME280;72842;56.038;12.706;2023-11-19T06:31:45;100667.00;;;6.34;72.05
83027;BME280;72842;56.038;12.706;2023-11-19T06:34:14;100672.25;;;6.36;71.08
83027;BME280;72842;56.038;12.706;2023-11-19T06:36:39;100669.59;;;6.36;71.78
83027;BME280;72842;56.038;12.706;2023-11-19T06:39:05;100661.59;;;6.36;71.88
83027;BME280;72842;56.038;12.706;2023-11-19T06:41:31;100659.81;;;6.36;71.87
83027;BME280;72842;56.038;12.706;2023-11-19T06:43:56;100659.81;;;6.36;72.11
83027;BME280;72842;56.038;12.706;2023-11-19T06:46:22;100647.47;;;6.35;72.30
83027;BME280;72842;56.038;12.706;2023-11-19T06:48:47;100647.47;;;6.35;72.08
83027;BME280;72842;56.038;12.706;2023-11-19T06:51:13;100635.97;;;6.35;71.72
83027;BME280;72842;56.038;12.706;2023-11-19T06:53:39;100643.94;;;6.35;71.84
83027;BME280;72842;56.038;12.706;2023-11-19T06:56:23;100626.47;;;6.31;72.34
83027;BME280;72842;56.038;12.706;2023-11-19T06:58:50;100620.97;;;6.34;72.57
83027;BME280;72842;56.038;12.706;2023-11-19T07:01:18;100618.22;;;6.35;71.64
83027;BME280;72842;56.038;12.706;2023-11-19T07:03:47;100623.56;;;6.35;71.84
83027;BME280;72842;56.038;12.706;2023-11-19T07:06:13;100626.22;;;6.35;71.73
83027;BME280;72842;56.038;12.706;2023-11-19T07:08:41;100616.22;;;6.39;72.06
83027;BME280;72842;56.038;12.706;2023-11-19T07:11:07;100611.00;;;6.37;72.42
83027;BME280;72842;56.038;12.706;2023-11-19T07:13:35;100605.47;;;6.40;71.91
83027;BME280;72842;56.038;12.706;2023-11-19T07:16:00;100609.09;;;6.39;72.07
83027;BME280;72842;56.038;12.706;2023-11-19T07:18:26;100602.94;;;6.39;71.98
83027;BME280;72842;56.038;12.706;2023-11-19T07:20:51;100603.69;;;6.41;72.24
83027;BME280;72842;56.038;12.706;2023-11-19T07:23:17;100601.91;;;6.41;71.58
83027;BME280;72842;56.038;12.706;2023-11-19T07:25:43;100592.03;;;6.43;72.61
83027;BME280;72842;56.038;12.706;2023-11-19T07:28:10;100596.59;;;6.41;72.10
83027;BME280;72842;56.038;12.706;2023-11-19T07:30:35;100587.84;;;6.39;72.09
83027;BME280;72842;56.038;12.706;2023-11-19T07:33:01;100596.59;;;6.41;72.45
83027;BME280;72842;56.038;12.706;2023-11-19T07:35:29;100592.19;;;6.40;72.23
83027;BME280;72842;56.038;12.706;2023-11-19T07:37:56;100583.19;;;6.43;71.73
83027;BME280;72842;56.038;12.706;2023-11-19T07:40:23;100575.41;;;6.40;72.07
83027;BME280;72842;56.038;12.706;2023-11-19T07:42:48;100589.38;;;6.43;72.45
83027;BME280;72842;56.038;12.706;2023-11-19T07:45:14;100583.09;;;6.44;71.68
83027;BME280;72842;56.038;12.706;2023-11-19T07:47:39;100574.16;;;6.45;72.57
83027;BME280;72842;56.038;12.706;2023-11-19T07:50:05;100581.19;;;6.46;72.62
83027;BME280;72842;56.038;12.706;2023-11-19T07:52:30;100574.06;;;6.47;72.28
83027;BME280;72842;56.038;12.706;2023-11-19T07:54:56;100575.78;;;6.48;72.79
83027;BME280;72842;56.038;12.706;2023-11-19T07:57:22;100576.66;;;6.48;72.43
83027;BME280;72842;56.038;12.706;2023-11-19T07:59:49;100566.00;;;6.48;72.46
83027;BME280;72842;56.038;12.706;2023-11-19T08:02:14;100573.03;;;6.49;72.55
83027;BME280;72842;56.038;12.706;2023-11-19T08:04:40;100558.78;;;6.51;72.25
83027;BME280;72842;56.038;12.706;2023-11-19T08:07:10;100566.88;;;6.49;71.75
83027;BME280;72842;56.038;12.706;2023-11-19T08:09:35;100565.78;;;6.52;72.58
83027;BME280;72842;56.038;12.706;2023-11-19T08:12:03;100551.56;;;6.53;72.22
83027;BME280;72842;56.038;12.706;2023-11-19T08:14:28;100555.91;;;6.54;72.10
83027;BME280;72842;56.038;12.706;2023-11-19T08:16:54;100533.91;;;6.52;72.43
83027;BME280;72842;56.038;12.706;2023-11-19T08:19:19;100545.28;;;6.54;72.34
83027;BME280;72842;56.038;12.706;2023-11-19T08:21:45;100537.13;;;6.57;72.70
83027;BME280;72842;56.038;12.706;2023-11-19T08:24:10;100546.91;;;6.56;71.95
83027;BME280;72842;56.038;12.706;2023-11-19T08:26:36;100537.13;;;6.57;72.77
83027;BME280;72842;56.038;12.706;2023-11-19T08:29:01;100535.31;;;6.57;72.60
83027;BME280;72842;56.038;12.706;2023-11-19T08:31:27;100530.84;;;6.58;72.14
83027;BME280;72842;56.038;12.706;2023-11-19T08:33:52;100528.19;;;6.58;72.95
83027;BME280;72842;56.038;12.706;2023-11-19T08:36:17;100530.84;;;6.58;72.18
83027;BME280;72842;56.038;12.706;2023-11-19T08:38:43;100541.47;;;6.58;72.37
83027;BME280;72842;56.038;12.706;2023-11-19T08:41:08;100533.63;;;6.56;73.00
83027;BME280;72842;56.038;12.706;2023-11-19T08:43:34;100524.56;;;6.59;72.89
83027;BME280;72842;56.038;12.706;2023-11-19T08:45:59;100524.38;;;6.62;72.94
83027;BME280;72842;56.038;12.706;2023-11-19T08:48:25;100521.84;;;6.60;72.70
83027;BME280;72842;56.038;12.706;2023-11-19T08:50:51;100516.53;;;6.60;73.04
83027;BME280;72842;56.038;12.706;2023-11-19T08:53:16;100500.47;;;6.62;72.39
83027;BME280;72842;56.038;12.706;2023-11-19T08:55:42;100506.81;;;6.59;72.86
83027;BME280;72842;56.038;12.706;2023-11-19T08:58:07;100503.22;;;6.60;72.66
83027;BME280;72842;56.038;12.706;2023-11-19T09:00:32;100493.53;;;6.59;72.72
83027;BME280;72842;56.038;12.706;2023-11-19T09:02:58;100497.03;;;6.60;72.50
83027;BME280;72842;56.038;12.706;2023-11-19T09:05:24;100486.41;;;6.60;73.16
83027;BME280;72842;56.038;12.706;2023-11-19T09:07:49;100498.00;;;6.59;73.04
83027;BME280;72842;56.038;12.706;2023-11-19T09:10:15;100496.41;;;6.56;72.88
83027;BME280;72842;56.038;12.706;2023-11-19T09:12:41;100489.16;;;6.58;73.23
83027;BME280;72842;56.038;12.706;2023-11-19T09:15:07;100492.66;;;6.59;72.57
83027;BME280;72842;56.038;12.706;2023-11-19T09:17:32;100498.09;;;6.57;72.59
83027;BME280;72842;56.038;12.706;2023-11-19T09:19:58;100489.16;;;6.58;73.53
83027;BME280;72842;56.038;12.706;2023-11-19T09:22:23;100497.03;;;6.60;72.92
83027;BME280;72842;56.038;12.706;2023-11-19T09:24:49;100484.91;;;6.56;73.70
83027;BME280;72842;56.038;12.706;2023-11-19T09:27:14;100488.41;;;6.56;73.65
83027;BME280;72842;56.038;12.706;2023-11-19T09:29:41;100489.28;;;6.57;72.65
83027;BME280;72842;56.038;12.706;2023-11-19T09:32:06;100488.31;;;6.58;73.78
83027;BME280;72842;56.038;12.706;2023-11-19T09:34:32;100465.34;;;6.57;73.03
83027;BME280;72842;56.038;12.706;2023-11-19T09:36:58;100485.66;;;6.58;73.44
83027;BME280;72842;56.038;12.706;2023-11-19T09:39:23;100477.69;;;6.58;73.84
83027;BME280;72842;56.038;12.706;2023-11-19T09:41:51;100471.63;;;6.56;73.95
83027;BME280;72842;56.038;12.706;2023-11-19T09:44:16;100475.97;;;6.57;73.00
83027;BME280;72842;56.038;12.706;2023-11-19T09:46:44;100472.47;;;6.56;73.23
83027;BME280;72842;56.038;12.706;2023-11-19T09:49:11;100472.25;;;6.59;73.54
83027;BME280;72842;56.038;12.706;2023-11-19T09:51:38;100466.09;;;6.59;72.88
83027;BME280;72842;56.038;12.706;2023-11-19T09:54:04;100459.81;;;6.60;74.05
83027;BME280;72842;56.038;12.706;2023-11-19T09:56:29;100463.34;;;6.60;73.84
83027;BME280;72842;56.038;12.706;2023-11-19T09:58:56;100463.34;;;6.60;73.49
83027;BME280;72842;56.038;12.706;2023-11-19T10:01:21;100443.13;;;6.58;73.50
83027;BME280;72842;56.038;12.706;2023-11-19T10:03:47;100461.44;;;6.62;73.11
83027;BME280;72842;56.038;12.706;2023-11-19T10:06:14;100453.47;;;6.62;73.25
83027;BME280;72842;56.038;12.706;2023-11-19T10:08:41;100458.78;;;6.62;73.77
83027;BME280;72842;56.038;12.706;2023-11-19T10:11:08;100450.81;;;6.62;73.69
83027;BME280;72842;56.038;12.706;2023-11-19T10:13:36;100436.94;;;6.57;73.76
83027;BME280;72842;56.038;12.706;2023-11-19T10:16:09;100443.84;;;6.60;74.01
83027;BME280;72842;56.038;12.706;2023-11-19T10:18:37;100441.97;;;6.62;73.48
83027;BME280;72842;56.038;12.706;2023-11-19T10:21:06;100440.28;;;6.61;74.21
83027;BME280;72842;56.038;12.706;2023-11-19T10:23:53;100428.78;;;6.60;74.45
83027;BME280;72842;56.038;12.706;2023-11-19T10:26:20;100431.44;;;6.60;74.38
83027;BME280;72842;56.038;12.706;2023-11-19T10:28:47;100426.03;;;6.62;73.94
83027;BME280;72842;56.038;12.706;2023-11-19T10:31:13;100423.38;;;6.62;74.48
83027;BME280;72842;56.038;12.706;2023-11-19T10:33:39;100425.06;;;6.63;74.28
83027;BME280;72842;56.038;12.706;2023-11-19T10:36:05;100414.63;;;6.60;73.56
83027;BME280;72842;56.038;12.706;2023-11-19T10:38:30;100421.44;;;6.64;74.33
83027;BME280;72842;56.038;12.706;2023-11-19T10:40:56;100416.13;;;6.64;73.18
83027;BME280;72842;56.038;12.706;2023-11-19T10:43:22;100416.13;;;6.64;73.45
83027;BME280;72842;56.038;12.706;2023-11-19T10:45:48;100423.25;;;6.63;73.54
83027;BME280;72842;56.038;12.706;2023-11-19T10:48:14;100421.44;;;6.64;74.31
83027;BME280;72842;56.038;12.706;2023-11-19T10:50:44;100413.47;;;6.64;74.33
83027;BME280;72842;56.038;12.706;2023-11-19T10:53:11;100409.09;;;6.63;73.35
83027;BME280;72842;56.038;12.706;2023-11-19T10:55:41;100414.31;;;6.64;73.54
83027;BME280;72842;56.038;12.706;2023-11-19T10:58:08;100404.53;;;6.65;73.77
83027;BME280;72842;56.038;12.706;2023-11-19T11:03:17;100408.16;;;6.64;73.79
83027;BME280;72842;56.038;12.706;2023-11-19T11:05:48;100408.16;;;6.64;74.22
83027;BME280;72842;56.038;12.706;2023-11-19T11:08:14;100396.78;;;6.62;74.45
83027;BME280;72842;56.038;12.706;2023-11-19T11:10:44;100400.41;;;6.61;73.90
83027;BME280;72842;56.038;12.706;2023-11-19T11:13:10;100403.97;;;6.60;73.64
83027;BME280;72842;56.038;12.706;2023-11-19T11:15:37;100401.25;;;6.61;74.04
83027;BME280;72842;56.038;12.706;2023-11-19T11:18:03;100402.09;;;6.62;74.46
83027;BME280;72842;56.038;12.706;2023-11-19T11:20:32;100399.63;;;6.59;74.52
83027;BME280;72842;56.038;12.706;2023-11-19T11:28:58;100404.88;;;6.60;74.36
83027;BME280;72842;56.038;12.706;2023-11-19T11:31:48;100406.63;;;6.60;74.25
83027;BME280;72842;56.038;12.706;2023-11-19T11:39:33;100399.53;;;6.60;73.83
83027;BME280;72842;56.038;12.706;2023-11-19T11:45:05;100402.09;;;6.62;74.21
83027;BME280;72842;56.038;12.706;2023-11-19T11:50:15;100375.69;;;6.59;73.41
83027;BME280;72842;56.038;12.706;2023-11-19T11:57:53;100372.97;;;6.60;73.46
83027;BME280;72842;56.038;12.706;2023-11-19T12:00:39;100372.06;;;6.60;73.52
83027;BME280;72842;56.038;12.706;2023-11-19T12:03:06;100372.00;;;6.61;73.50
83027;BME280;72842;56.038;12.706;2023-11-19T12:05:32;100361.56;;;6.58;73.91
83027;BME280;72842;56.038;12.706;2023-11-19T12:08:04;100368.38;;;6.62;74.12
83027;BME280;72842;56.038;12.706;2023-11-19T12:10:36;100369.53;;;6.58;74.05
83027;BME280;72842;56.038;12.706;2023-11-19T12:13:05;100369.34;;;6.61;73.75
83027;BME280;72842;56.038;12.706;2023-11-19T12:15:33;100374.22;;;6.55;74.66
83027;BME280;72842;56.038;12.706;2023-11-19T12:17:58;100367.94;;;6.56;73.52
83027;BME280;72842;56.038;12.706;2023-11-19T12:20:25;100363.38;;;6.58;74.34
83027;BME280;72842;56.038;12.706;2023-11-19T12:22:52;100363.59;;;6.55;74.25
83027;BME280;72842;56.038;12.706;2023-11-19T12:25:19;100368.50;;;6.61;74.32
83027;BME280;72842;56.038;12.706;2023-11-19T12:27:49;100366.69;;;6.61;73.42
83027;BME280;72842;56.038;12.706;2023-11-19T12:30:25;100361.44;;;6.60;74.40
83027;BME280;72842;56.038;12.706;2023-11-19T12:32:52;100359.66;;;6.60;73.98
83027;BME280;72842;56.038;12.706;2023-11-19T12:35:19;100363.16;;;6.61;74.33
83027;BME280;72842;56.038;12.706;2023-11-19T12:37:51;100363.16;;;6.61;74.23
83027;BME280;72842;56.038;12.706;2023-11-19T12:40:24;100365.63;;;6.64;73.54
83027;BME280;72842;56.038;12.706;2023-11-19T12:42:52;100361.25;;;6.63;74.12
83027;BME280;72842;56.038;12.706;2023-11-19T12:45:18;100362.09;;;6.63;73.72
83027;BME280;72842;56.038;12.706;2023-11-19T12:47:46;100350.81;;;6.60;73.41
83027;BME280;72842;56.038;12.706;2023-11-19T12:50:18;100350.81;;;6.60;73.64
83027;BME280;72842;56.038;12.706;2023-11-19T12:52:55;100355.38;;;6.58;74.49
83027;BME280;72842;56.038;12.706;2023-11-19T12:55:29;100353.56;;;6.58;74.30
83027;BME280;72842;56.038;12.706;2023-11-19T12:57:55;100342.09;;;6.58;74.46
83027;BME280;72842;56.038;12.706;2023-11-19T13:00:23;100350.06;;;6.58;73.47
83027;BME280;72842;56.038;12.706;2023-11-19T13:02:51;100334.13;;;6.58;74.16
83027;BME280;72842;56.038;12.706;2023-11-19T13:05:33;100331.47;;;6.58;74.47
83027;BME280;72842;56.038;12.706;2023-11-19T13:10:26;100319.13;;;6.57;73.68
83027;BME280;72842;56.038;12.706;2023-11-19T13:13:06;100329.97;;;6.54;73.83
83027;BME280;72842;56.038;12.706;2023-11-19T13:15:35;100329.03;;;6.55;73.42